createdAt,value
2022-10-01T00:01:17.820Z,0.80
2022-10-01T00:03:45.572Z,0.60
2022-10-01T00:06:18.426Z,0.55
2022-10-01T00:08:48.876Z,0.52
2022-10-01T00:11:24.315Z,0.20
2022-10-01T00:13:53.010Z,0.30
2022-10-01T00:16:26.172Z,0.50
2022-10-01T00:18:54.252Z,0.30
2022-10-01T00:21:30.157Z,0.68
2022-10-01T00:24:02.622Z,0.40
2022-10-01T00:26:33.571Z,0.30
2022-10-01T00:31:33.853Z,0.32
2022-10-01T00:34:05.080Z,0.68
2022-10-01T00:36:33.291Z,0.17
2022-10-01T00:39:00.841Z,0.32
2022-10-01T00:41:30.619Z,0.60
2022-10-01T00:44:03.673Z,0.50
2022-10-01T00:46:41.600Z,0.43
2022-10-01T00:49:24.319Z,0.32
2022-10-01T00:51:55.702Z,0.50
2022-10-01T00:54:26.691Z,0.45
2022-10-01T00:56:57.421Z,0.50
2022-10-01T00:59:24.990Z,0.50
2022-10-01T01:01:57.491Z,0.50
2022-10-01T01:04:25.325Z,0.35
2022-10-01T01:06:59.974Z,0.20
2022-10-01T01:09:31.256Z,0.05
2022-10-01T01:12:04.300Z,0.28
2022-10-01T01:14:47.519Z,0.50
2022-10-01T01:17:26.237Z,0.40
2022-10-01T01:20:57.768Z,0.50
2022-10-01T01:23:37.103Z,0.30
2022-10-01T01:26:31.221Z,0.20
2022-10-01T01:29:06.664Z,0.32
2022-10-01T01:31:41.375Z,0.25
2022-10-01T01:34:14.351Z,0.30
2022-10-01T01:36:47.432Z,0.28
2022-10-01T01:39:16.504Z,0.22
2022-10-01T01:41:50.059Z,0.45
2022-10-01T01:44:24.164Z,0.20
2022-10-01T01:46:52.016Z,0.22
2022-10-01T01:49:20.979Z,0.10
2022-10-01T01:52:05.292Z,0.30
2022-10-01T01:54:35.753Z,0.32
2022-10-01T01:57:05.885Z,0.30
2022-10-01T01:59:35.876Z,0.25
2022-10-01T02:02:07.747Z,0.20
2022-10-01T02:04:40.253Z,0.20
2022-10-01T02:07:19.872Z,0.25
2022-10-01T02:10:05.675Z,0.20
2022-10-01T02:12:54.910Z,0.40
2022-10-01T02:15:37.062Z,0.13
2022-10-01T02:18:18.257Z,0.20
2022-10-01T02:20:47.906Z,0.10
2022-10-01T02:23:19.365Z,0.17
2022-10-01T02:25:56.250Z,0.50
2022-10-01T02:28:25.004Z,0.30
2022-10-01T02:30:54.273Z,0.20
2022-10-01T02:33:35.505Z,0.10
2022-10-01T02:36:06.173Z,0.30
2022-10-01T02:38:37.539Z,0.13
2022-10-01T02:41:08.265Z,0.20
2022-10-01T02:43:45.371Z,0.30
2022-10-01T02:46:28.405Z,0.20
2022-10-01T02:48:56.940Z,0.40
2022-10-01T02:51:27.836Z,0.20
2022-10-01T02:54:05.737Z,0.20
2022-10-01T02:57:11.707Z,0.13
2022-10-01T02:59:38.945Z,0.20
2022-10-01T03:02:12.140Z,0.10
2022-10-01T03:04:39.057Z,0.20
2022-10-01T03:07:05.979Z,0.20
2022-10-01T03:09:36.708Z,0.22
2022-10-01T03:12:04.337Z,0.25
2022-10-01T03:14:32.376Z,0.10
2022-10-01T03:16:59.753Z,0.52
2022-10-01T03:19:26.666Z,0.40
2022-10-01T03:21:53.871Z,0.30
2022-10-01T03:24:20.820Z,0.38
2022-10-01T03:26:47.665Z,0.40
2022-10-01T03:29:15.234Z,0.50
2022-10-01T03:31:42.209Z,0.50
2022-10-01T03:34:09.172Z,0.63
2022-10-01T03:36:36.049Z,0.63
2022-10-01T03:39:03.140Z,0.65
2022-10-01T03:41:31.338Z,0.82
2022-10-01T03:44:00.492Z,0.63
2022-10-01T03:46:27.899Z,0.63
2022-10-01T03:48:55.811Z,0.70
2022-10-01T03:51:26.137Z,1.00
2022-10-01T03:53:53.050Z,1.38
2022-10-01T03:56:19.903Z,0.55
2022-10-01T03:58:46.860Z,1.10
2022-10-01T04:01:14.434Z,1.33
2022-10-01T04:03:41.745Z,1.25
2022-10-01T04:06:08.551Z,1.27
2022-10-01T04:08:35.432Z,0.93
2022-10-01T04:11:02.645Z,1.50
2022-10-01T04:13:30.063Z,0.80
2022-10-01T04:15:57.021Z,1.52
2022-10-01T04:18:25.219Z,1.17
2022-10-01T04:20:52.450Z,1.65
2022-10-01T04:23:19.537Z,1.08
2022-10-01T04:25:46.364Z,1.42
2022-10-01T04:28:13.802Z,1.42
2022-10-01T04:30:42.969Z,1.83
2022-10-01T04:33:13.338Z,1.45
2022-10-01T04:35:41.590Z,1.80
2022-10-01T04:38:16.902Z,1.70
2022-10-01T04:40:44.094Z,1.67
2022-10-01T04:43:12.529Z,1.65
2022-10-01T04:45:39.567Z,1.27
2022-10-01T04:48:06.615Z,1.30
2022-10-01T04:50:33.454Z,0.93
2022-10-01T04:53:00.531Z,1.85
2022-10-01T04:55:27.727Z,1.83
2022-10-01T04:57:55.361Z,2.25
2022-10-01T05:00:27.137Z,1.27
2022-10-01T05:02:54.733Z,1.80
2022-10-01T05:05:24.101Z,1.88
2022-10-01T05:07:51.397Z,1.73
2022-10-01T05:10:20.852Z,2.03
2022-10-01T05:12:48.803Z,0.95
2022-10-01T05:15:16.791Z,1.63
2022-10-01T05:17:44.361Z,1.55
2022-10-01T05:20:17.800Z,1.25
2022-10-01T05:22:49.388Z,1.60
2022-10-01T05:25:18.312Z,1.85
2022-10-01T05:27:46.048Z,1.67
2022-10-01T05:30:24.016Z,1.50
2022-10-01T05:35:31.198Z,1.83
2022-10-01T05:38:02.951Z,1.48
2022-10-01T05:40:30.859Z,1.40
2022-10-01T05:42:58.832Z,1.80
2022-10-01T05:45:30.477Z,2.05
2022-10-01T05:47:59.484Z,2.15
2022-10-01T05:50:27.414Z,2.47
2022-10-01T05:52:54.749Z,1.73
2022-10-01T05:55:22.330Z,1.30
2022-10-01T05:58:01.315Z,1.55
2022-10-01T06:00:29.280Z,1.45
2022-10-01T06:02:58.206Z,2.10
2022-10-01T06:05:25.981Z,1.58
2022-10-01T06:07:53.703Z,2.05
2022-10-01T06:10:22.150Z,1.77
2022-10-01T06:12:49.253Z,1.50
2022-10-01T06:15:17.638Z,1.65
2022-10-01T06:17:47.565Z,2.25
2022-10-01T06:20:17.222Z,1.50
2022-10-01T06:22:44.760Z,1.48
2022-10-01T06:25:13.454Z,1.67
2022-10-01T06:27:40.286Z,1.98
2022-10-01T06:30:08.045Z,1.13
2022-10-01T06:32:35.292Z,1.55
2022-10-01T06:35:03.591Z,1.85
2022-10-01T06:37:30.578Z,1.75
2022-10-01T06:39:57.473Z,2.28
2022-10-01T06:42:24.498Z,1.80
2022-10-01T06:44:51.746Z,2.05
2022-10-01T06:47:18.682Z,1.38
2022-10-01T06:49:47.847Z,1.77
2022-10-01T06:52:33.903Z,2.33
2022-10-01T06:55:01.641Z,2.47
2022-10-01T06:57:29.823Z,2.30
2022-10-01T06:59:57.967Z,1.50
2022-10-01T07:02:32.529Z,2.40
2022-10-01T07:04:59.556Z,1.77
2022-10-01T07:07:35.819Z,1.73
2022-10-01T07:10:08.173Z,2.22
2022-10-01T07:12:36.708Z,2.00
2022-10-01T07:15:05.868Z,1.90
2022-10-01T07:17:33.018Z,1.95
2022-10-01T07:20:01.698Z,2.53
2022-10-01T07:22:28.649Z,1.70
2022-10-01T07:24:55.463Z,1.52
2022-10-01T07:27:22.956Z,1.40
2022-10-01T07:29:49.865Z,2.33
2022-10-01T07:32:16.663Z,1.77
2022-10-01T07:34:43.478Z,2.00
2022-10-01T07:37:11.075Z,1.52
2022-10-01T07:39:37.865Z,1.98
2022-10-01T07:42:04.930Z,2.05
2022-10-01T07:44:31.748Z,2.10
2022-10-01T07:46:58.793Z,1.77
2022-10-01T07:49:26.157Z,1.73
2022-10-01T07:51:54.554Z,1.67
2022-10-01T07:54:22.341Z,1.60
2022-10-01T07:56:52.079Z,2.10
2022-10-01T07:59:19.127Z,1.90
2022-10-01T08:01:49.700Z,1.15
2022-10-01T08:04:37.429Z,1.60
2022-10-01T08:07:05.393Z,1.73
2022-10-01T08:09:32.382Z,1.27
2022-10-01T08:12:00.508Z,1.73
2022-10-01T08:14:28.706Z,1.92
2022-10-01T08:16:56.137Z,1.20
2022-10-01T08:19:23.189Z,1.08
2022-10-01T08:21:51.058Z,2.60
2022-10-01T08:24:20.082Z,1.88
2022-10-01T08:26:53.041Z,1.52
2022-10-01T08:29:20.477Z,1.42
2022-10-01T08:31:47.510Z,2.10
2022-10-01T08:34:14.749Z,1.65
2022-10-01T08:36:41.590Z,1.73
2022-10-01T08:39:08.562Z,1.83
2022-10-01T08:42:15.359Z,1.52
2022-10-01T08:44:45.953Z,1.98
2022-10-01T08:47:23.499Z,2.47
2022-10-01T08:50:02.679Z,2.30
2022-10-01T08:52:40.079Z,2.53
2022-10-01T08:55:16.473Z,1.52
2022-10-01T08:57:51.609Z,1.70
2022-10-01T09:00:21.976Z,2.67
2022-10-01T09:02:52.862Z,2.30
2022-10-01T09:05:32.549Z,2.85
2022-10-01T09:08:18.176Z,1.52
2022-10-01T09:11:04.361Z,1.95
2022-10-01T09:13:51.630Z,1.80
2022-10-01T09:16:29.550Z,2.10
2022-10-01T09:19:17.995Z,1.50
2022-10-01T09:22:03.481Z,2.17
2022-10-01T09:24:40.679Z,1.85
2022-10-01T09:27:15.789Z,1.98
2022-10-01T09:29:51.963Z,1.23
2022-10-01T09:32:24.663Z,1.75
2022-10-01T09:34:53.354Z,1.70
2022-10-01T09:37:45.834Z,1.98
2022-10-01T09:40:29.598Z,2.08
2022-10-01T09:42:56.698Z,1.60
2022-10-01T09:45:25.055Z,1.35
2022-10-01T09:47:57.464Z,2.10
2022-10-01T09:50:41.076Z,1.20
2022-10-01T14:36:50.815Z,1.38
2022-10-01T14:39:21.128Z,2.28
2022-10-01T14:41:50.380Z,2.03
2022-10-01T14:44:22.077Z,1.58
2022-10-01T14:46:51.643Z,1.92
2022-10-01T14:49:21.091Z,1.33
2022-10-01T14:51:55.071Z,0.98
2022-10-01T14:54:23.541Z,2.22
2022-10-01T14:56:51.838Z,1.90
2022-10-01T14:59:25.748Z,2.00
2022-10-01T15:01:58.387Z,1.35
2022-10-01T15:04:25.359Z,1.42
2022-10-01T15:06:52.442Z,1.77
2022-10-01T15:09:20.546Z,1.75
2022-10-01T15:11:50.109Z,1.63
2022-10-01T15:14:24.957Z,2.00
2022-10-01T15:16:52.533Z,1.02
2022-10-01T15:19:23.032Z,1.67
2022-10-01T15:21:54.185Z,1.25
2022-10-01T15:24:27.741Z,0.85
2022-10-01T15:26:57.136Z,1.40
2022-10-01T15:29:24.307Z,1.75
2022-10-01T15:31:55.963Z,1.40
2022-10-01T15:34:25.955Z,1.83
2022-10-01T15:36:54.305Z,1.80
2022-10-01T15:39:35.642Z,1.88
2022-10-01T15:42:20.542Z,1.50
2022-10-01T15:44:49.922Z,1.30
2022-10-01T15:47:19.765Z,1.70
2022-10-01T15:50:12.509Z,1.35
2022-10-01T15:52:52.572Z,2.13
2022-10-01T15:55:44.837Z,1.63
2022-10-01T15:58:21.456Z,1.42
2022-10-01T16:00:48.711Z,1.58
2022-10-01T16:03:24.110Z,1.42
2022-10-01T16:05:55.047Z,1.08
2022-10-01T16:08:34.540Z,1.10
2022-10-01T16:11:11.721Z,1.35
2022-10-01T16:13:41.493Z,1.35
2022-10-01T16:16:08.349Z,1.08
2022-10-01T16:18:37.445Z,1.70
2022-10-01T16:21:06.228Z,1.27
2022-10-01T16:23:42.471Z,2.25
2022-10-01T16:26:32.569Z,1.45
2022-10-01T16:29:04.466Z,1.52
2022-10-01T16:31:32.617Z,1.75
2022-10-01T16:33:59.620Z,1.65
2022-10-01T16:36:26.522Z,1.33
2022-10-01T16:38:53.670Z,1.45
2022-10-01T16:41:26.139Z,0.82
2022-10-01T16:43:56.032Z,0.77
2022-10-01T16:46:23.281Z,1.30
2022-10-01T16:48:54.189Z,1.20
2022-10-01T16:51:21.946Z,1.63
2022-10-01T16:53:50.168Z,1.10
2022-10-01T16:56:17.585Z,1.35
2022-10-01T16:58:45.189Z,1.80
2022-10-01T17:01:16.581Z,1.60
2022-10-01T17:03:43.508Z,1.80
2022-10-01T17:06:10.925Z,1.67
2022-10-01T17:08:37.860Z,1.10
2022-10-01T17:11:05.832Z,1.40
2022-10-01T17:13:34.737Z,1.33
2022-10-01T17:16:02.031Z,1.23
2022-10-01T17:18:29.198Z,1.20
2022-10-01T17:20:59.466Z,1.08
2022-10-01T17:23:26.361Z,1.88
2022-10-01T17:25:53.266Z,1.98
2022-10-01T17:28:21.400Z,1.95
2022-10-01T17:30:49.434Z,1.83
2022-10-01T17:33:19.410Z,1.38
2022-10-01T17:35:51.646Z,1.52
2022-10-01T17:38:19.540Z,1.75
2022-10-01T17:40:47.558Z,1.63
2022-10-01T17:43:16.633Z,1.35
2022-10-01T17:45:48.565Z,1.10
2022-10-01T17:48:17.941Z,1.60
2022-10-01T17:50:49.267Z,1.60
2022-10-01T17:53:17.361Z,1.67
2022-10-01T17:55:46.702Z,1.17
2022-10-01T17:58:14.834Z,1.80
2022-10-01T18:00:41.881Z,1.50
2022-10-01T18:03:08.887Z,1.67
2022-10-01T18:05:36.935Z,1.52
2022-10-01T18:08:04.372Z,1.20
2022-10-01T18:10:31.290Z,1.80
2022-10-01T18:12:58.199Z,2.20
2022-10-01T18:15:25.055Z,1.73
2022-10-01T18:18:48.577Z,1.95
2022-10-01T18:20:40.387Z,2.03
2022-10-01T18:23:08.167Z,1.35
2022-10-01T18:25:35.206Z,1.40
2022-10-01T18:28:02.233Z,1.77
2022-10-01T18:30:29.367Z,1.35
2022-10-01T18:32:57.167Z,2.08
2022-10-01T18:35:32.854Z,1.00
2022-10-01T18:38:06.915Z,1.88
2022-10-01T18:40:40.149Z,1.42
2022-10-01T18:43:21.403Z,1.05
2022-10-01T18:45:54.320Z,2.10
2022-10-01T18:48:47.442Z,1.45
2022-10-01T18:51:26.302Z,1.38
2022-10-01T18:53:53.239Z,1.60
2022-10-01T18:56:32.212Z,1.83
2022-10-01T18:59:17.673Z,1.52
2022-10-01T19:02:26.182Z,1.40
2022-10-01T19:05:05.444Z,1.70
2022-10-01T19:07:51.011Z,1.20
2022-10-01T19:10:42.129Z,1.92
2022-10-01T19:13:16.047Z,1.52
2022-10-01T19:16:04.140Z,1.35
2022-10-01T19:18:56.734Z,1.40
2022-10-01T19:21:34.173Z,1.60
2022-10-01T19:24:22.097Z,1.60
2022-10-01T19:27:23.142Z,1.15
2022-10-01T19:32:41.453Z,1.67
2022-10-01T19:35:20.050Z,1.40
2022-10-01T19:37:58.285Z,0.93
2022-10-01T19:40:40.291Z,1.30
2022-10-01T19:43:24.919Z,1.30
2022-10-01T19:46:09.188Z,1.25
2022-10-01T19:48:57.668Z,1.65
2022-10-01T19:51:32.297Z,1.42
2022-10-01T19:54:01.568Z,1.15
2022-10-01T19:56:31.138Z,1.58
2022-10-01T19:59:06.894Z,1.05
2022-10-01T20:01:48.472Z,1.02
2022-10-01T20:04:35.779Z,1.80
2022-10-01T20:07:11.483Z,1.30
2022-10-01T20:09:47.338Z,1.52
2022-10-01T20:12:38.879Z,1.25
2022-10-01T20:15:39.689Z,1.40
2022-10-01T20:18:34.103Z,1.63
2022-10-01T20:21:10.589Z,1.50
2022-10-01T20:23:53.308Z,1.38
2022-10-01T20:26:31.048Z,1.20
2022-10-01T20:29:14.126Z,1.95
2022-10-01T20:31:56.181Z,1.25
2022-10-01T20:34:43.533Z,1.40
2022-10-01T20:37:10.379Z,1.40
2022-10-01T20:39:47.989Z,1.73
2022-10-01T20:42:30.667Z,1.15
2022-10-01T20:45:00.581Z,1.85
2022-10-01T20:47:42.079Z,1.52
2022-10-01T20:50:24.742Z,1.30
2022-10-01T20:53:15.749Z,1.20
2022-10-01T20:55:52.704Z,1.35
2022-10-01T20:58:31.333Z,1.13
2022-10-01T21:01:12.887Z,1.15
2022-10-01T21:03:45.446Z,1.10
2022-10-01T21:06:18.303Z,1.35
2022-10-01T21:09:09.977Z,1.20
2022-10-01T21:11:50.846Z,2.22
2022-10-01T21:14:54.313Z,1.20
2022-10-01T21:17:58.654Z,1.08
2022-10-01T21:20:30.713Z,1.00
2022-10-01T21:23:09.681Z,1.60
2022-10-01T21:26:13.200Z,1.10
2022-10-01T21:29:07.776Z,1.60
2022-10-01T21:31:59.727Z,1.10
2022-10-01T21:35:07.441Z,1.63
2022-10-01T21:37:41.279Z,1.40
2022-10-01T21:40:42.872Z,1.50
2022-10-01T21:43:10.491Z,1.35
2022-10-01T21:46:03.177Z,1.40
2022-10-01T21:48:55.769Z,1.38
2022-10-01T21:51:45.273Z,1.65
2022-10-01T21:56:59.970Z,1.23
2022-10-01T21:59:54.133Z,1.42
2022-10-01T22:02:41.795Z,1.40
2022-10-01T22:05:24.571Z,1.13
2022-10-01T22:08:12.523Z,1.23
2022-10-01T22:10:44.181Z,1.80
2022-10-01T22:13:18.973Z,1.90
2022-10-01T22:15:49.078Z,1.42
2022-10-01T22:18:33.370Z,1.30
2022-10-01T22:21:05.216Z,1.92
2022-10-01T22:23:37.244Z,1.35
2022-10-01T22:26:13.164Z,2.03
2022-10-01T22:28:42.600Z,1.92
2022-10-01T22:31:16.892Z,1.80
2022-10-01T22:33:57.386Z,1.50
2022-10-01T22:36:34.092Z,2.45
2022-10-01T22:39:11.380Z,1.40
2022-10-01T22:41:47.465Z,1.52
2022-10-01T22:44:24.347Z,1.63
2022-10-01T22:46:54.423Z,1.92
2022-10-01T22:52:58.131Z,1.90
2022-10-01T22:55:42.868Z,1.17
2022-10-01T22:58:22.378Z,1.42
2022-10-01T23:01:00.721Z,1.65
2022-10-01T23:03:49.512Z,1.55
2022-10-01T23:06:19.587Z,1.40
2022-10-01T23:11:51.412Z,1.08
2022-10-01T23:14:30.628Z,1.10
2022-10-01T23:17:18.141Z,1.30
2022-10-01T23:20:09.596Z,1.20
2022-10-01T23:22:45.842Z,1.30
2022-10-01T23:25:29.366Z,1.73
2022-10-01T23:28:07.989Z,1.35
2022-10-01T23:31:15.652Z,1.48
2022-10-01T23:34:15.012Z,1.70
2022-10-01T23:37:03.345Z,1.95
2022-10-01T23:40:11.253Z,1.30
2022-10-01T23:43:00.912Z,1.50
2022-10-01T23:45:38.134Z,1.15
2022-10-01T23:48:17.179Z,1.83
2022-10-01T23:51:19.279Z,1.33
2022-10-01T23:54:05.427Z,1.40
2022-10-01T23:56:56.658Z,1.48
2022-10-01T23:59:36.141Z,2.05
